Terminal Aerodrome Forecast
Issued by NWS Charleston, WV

Home | Current Version | Previous Version | Text Only | Print | Product List | Glossary On
Versions: 1 2 3 4 5 6 7 8 9 10 11 12 13 14 15 16 17 18 19 20 21 22
000
FTUS41 KRLX 191700
TAFBKW
TAF
KBKW 191734Z 1918/2018 12019G29KT 6SM -SHRA FEW015 BKN035 OVC100
     FM192200 13020G30KT 6SM SHRA OVC018
     FM200500 16012G19KT P6SM OVC016
     FM200700 20010KT P6SM BKN030
     FM201200 20009KT P6SM SCT045
     FM201300 21010G16KT P6SM BKN045
     FM201700 22014G21KT P6SM VCTS BKN035CB=

USA.gov is the U.S. government's official web portal to all federal, state and local government web resources and services.